Good Hope, IL

8:59 AM CDT on April 29, 2017 (GMT -0500)
Macomb Municipal | | Change Station
Active Advisory: Flood Warning

Elev 702 ft 40.52 °N, 90.65 °W | Updated 4 minutes ago

Scattered Clouds
Scattered Clouds
48 °F
Feels Like 48 °F
N
20
Wind Variable Wind from NE
Gusts 39 mph

Today
High -- | Low -- °F
--% Chance of Precip.
Yesterday
High -- | Low -- °F
Precip. -- in
Pressure 30.00 in
Visibility 10.0 miles
Clouds Scattered Clouds 1300 ft
Scattered Clouds 10000 ft
Dew Point 45 °F
Humidity 89%
Rainfall 0.00 in
Snow Depth Not available.
6:03 AM 7:56 PM
Waxing Crescent, 14% visible
METAR KMQB 291355Z AUTO 05017G34KT 10SM SCT013 SCT100 09/07 A3000 RMK AO2 LTG DSNT SW T00890071
Pressure 30.00 in
Visibility 10.0 miles
Clouds Scattered Clouds 1300 ft
Scattered Clouds 10000 ft
Dew Point 45 °F
Humidity 89%
Rainfall 0.00 in
Snow Depth Not available.
6:03 AM 7:56 PM
Waxing Crescent, 14% visible
METAR KMQB 291355Z AUTO 05017G34KT 10SM SCT013 SCT100 09/07 A3000 RMK AO2 LTG DSNT SW T00890071

Get Your Daily Forecast Email!

Thanks for signing up!

Be on the lookout for a verification email in your inbox.

You'll start receiving severe weather alerts in your inbox..

×

10-Day Weather Forecast

Almanac

Astronomy

Apr. 29, 2017 Rise Set
Actual Time
Civil Twilight
Nautical Twilight
Astronomical Twilight
Moon
Length of Visible Light
Length of Day
Tomorrow will be .
, % of the Moon is Illuminated

Today's Extremes

State Highs State Lows

Community

WunderPhotos

WunderBlog® & News

Nearby

Air Quality

  Air Quality AQ Index Pollutant
Not available.

Snow Depth

Station Depth Elevation

Earthquake Activity

City Distance Mag. Time & Date
Minimum magnitude displayed is 2.5.

Coastal Water Temperatures

Place Temperature

Stations

Nearby Weather Stations

Station Location Temp. Windchill Dew Point Humidity Wind Precip. Elev Updated Type
                   

Watches & Warnings

Flood Warning
Issued: 4:47 AM CDT Apr. 29, 2017 – National Weather Service

... Flood Warning remains in effect until Thursday morning...

The Flood Warning continues for
the la moine river at Colmar.
* Until Thursday morning.
* At 3:45 am Saturday the stage was 7.5 feet... and steady.
* Flood stage is 20.0 feet.
* No flooding is occurring and moderate flooding is forecast.
* Forecast... rise above flood stage Sunday... and continue rising to
23.9 feet Tuesday morning. Fall below flood stage Thursday
morning.
* Impact... at 22.5 feet... water affects lower roads around
Birmingham.


Lat... Lon 4043 9093 4024 9074 4013 9066 4013 9072
      4041 9102